Time;durP1;ratioP1;P1;durP2;ratioP2;P2;SDS_P1;SDS_P2;PMS_P1;PMS_P2;Temp;Humidity;BMP_temperature;BMP_pressure;BME280_temperature;BME280_humidity;BME280_pressure;Samples;Min_cycle;Max_cycle;Signal;HPM_P1;HPM_P2
2021/06/29 06:10:15;;;;;;;15.83;14.60;;;25.90;98.80;;;;;;5170898;27;20499;-60
2021/06/29 06:12:43;;;;;;;16.03;14.83;;;25.90;98.60;;;;;;5155074;27;20444;-61
2021/06/29 06:15:10;;;;;;;16.73;15.13;;;26.00;98.60;;;;;;5147219;27;20505;-59
2021/06/29 06:17:38;;;;;;;16.20;14.63;;;27.10;98.40;;;;;;5154139;27;20762;-60
2021/06/29 06:20:07;;;;;;;15.93;14.83;;;26.80;97.90;;;;;;5155079;27;20506;-59
2021/06/29 06:22:35;;;;;;;16.07;14.87;;;27.30;97.20;;;;;;5154038;27;20452;-61
2021/06/29 06:25:02;;;;;;;15.70;13.93;;;27.40;96.50;;;;;;5155068;27;20494;-60
2021/06/29 06:27:29;;;;;;;14.93;13.83;;;27.60;95.90;;;;;;5153529;27;20484;-60
2021/06/29 06:29:56;;;;;;;15.80;14.67;;;28.50;94.70;;;;;;5154404;27;20512;-61
2021/06/29 06:32:24;;;;;;;15.40;14.10;;;29.30;93.20;;;;;;5152322;27;20446;-61
2021/06/29 06:34:58;;;;;;;15.93;14.67;;;30.00;91.90;;;;;;5149338;27;20464;-59
2021/06/29 06:37:26;;;;;;;14.33;13.43;;;30.00;91.20;;;;;;5152845;27;20759;-61
2021/06/29 06:39:53;;;;;;;13.77;12.63;;;30.30;90.30;;;;;;5149653;27;20447;-60
2021/06/29 06:42:20;;;;;;;15.60;14.50;;;30.30;91.10;;;;;;5142525;27;20448;-59
2021/06/29 06:44:51;;;;;;;15.70;14.23;;;30.70;86.80;;;;;;5150248;27;20448;-61
2021/06/29 06:47:19;;;;;;;15.90;13.30;;;30.70;86.80;;;;;;5152731;27;20504;-61
2021/06/29 06:49:46;;;;;;;14.60;13.30;;;30.80;85.50;;;;;;5154028;27;20437;-61
2021/06/29 06:52:13;;;;;;;15.07;13.93;;;31.00;87.40;;;;;;5153819;27;20432;-59
2021/06/29 06:54:42;;;;;;;13.70;12.80;;;31.60;86.50;;;;;;5153788;27;20437;-60
2021/06/29 06:57:10;;;;;;;15.40;14.23;;;32.60;82.60;;;;;;5153019;27;20495;-61
2021/06/29 06:59:38;;;;;;;14.43;13.47;;;34.60;76.90;;;;;;5143331;27;20467;-59
2021/06/29 07:02:06;;;;;;;14.30;13.17;;;34.30;74.30;;;;;;5133215;27;20487;-61
2021/06/29 07:04:33;;;;;;;14.83;13.73;;;34.10;73.90;;;;;;5134084;27;20529;-61
2021/06/29 07:07:02;;;;;;;13.80;12.97;;;35.00;71.40;;;;;;5130638;27;20601;-60
2021/06/29 07:09:29;;;;;;;15.67;14.47;;;35.40;67.70;;;;;;5128753;27;20498;-60
2021/06/29 07:11:57;;;;;;;15.03;13.93;;;35.80;66.80;;;;;;5118383;28;20711;-60
2021/06/29 07:14:24;;;;;;;16.30;15.20;;;36.20;63.50;;;;;;5125896;27;20673;-63
2021/06/29 07:16:51;;;;;;;15.17;14.17;;;35.40;64.10;;;;;;5123115;27;20474;-61
2021/06/29 07:19:19;;;;;;;15.40;14.40;;;35.40;64.60;;;;;;5111430;27;20446;-60
2021/06/29 07:21:46;;;;;;;15.57;14.40;;;35.40;64.10;;;;;;5119195;28;20445;-60
2021/06/29 07:24:13;;;;;;;14.43;13.43;;;34.90;66.20;;;;;;5120588;27;20454;-60
2021/06/29 07:26:40;;;;;;;15.30;14.30;;;35.00;65.10;;;;;;5119138;28;20893;-61
2021/06/29 07:29:08;;;;;;;15.70;14.47;;;34.40;65.80;;;;;;5136076;27;20807;-61
2021/06/29 07:31:35;;;;;;;14.90;13.90;;;34.40;66.50;;;;;;5129090;27;20452;-60
2021/06/29 07:34:03;;;;;;;15.63;14.53;;;34.30;66.50;;;;;;5119782;28;20465;-60
2021/06/29 07:36:31;;;;;;;15.00;14.00;;;34.80;66.10;;;;;;5129148;27;20449;-61
2021/06/29 07:38:58;;;;;;;14.10;13.10;;;34.50;64.60;;;;;;5119362;27;20438;-60
2021/06/29 07:41:25;;;;;;;14.90;13.80;;;34.30;68.30;;;;;;5122197;27;20454;-60
2021/06/29 07:43:52;;;;;;;23.83;17.03;;;32.40;70.30;;;;;;5106515;27;20438;-59
2021/06/29 07:46:20;;;;;;;15.97;14.87;;;31.60;72.90;;;;;;5113550;28;20667;-60
2021/06/29 07:48:48;;;;;;;13.73;12.70;;;32.10;71.30;;;;;;5101074;28;20484;-60
2021/06/29 07:51:15;;;;;;;14.53;13.53;;;32.30;71.70;;;;;;5111934;27;20471;-61
2021/06/29 07:53:42;;;;;;;16.00;14.60;;;32.80;68.30;;;;;;5117133;27;20441;-61
2021/06/29 07:56:15;;;;;;;15.00;13.90;;;34.70;64.50;;;;;;5108167;27;20770;-61
2021/06/29 07:58:44;;;;;;;14.67;13.77;;;34.90;64.80;;;;;;5108910;28;20464;-60
2021/06/29 08:01:15;;;;;;;16.80;15.60;;;36.20;61.40;;;;;;5112677;27;20432;-60
2021/06/29 08:03:43;;;;;;;15.43;14.53;;;38.20;56.50;;;;;;5118275;27;20445;-61
2021/06/29 08:06:12;;;;;;;14.83;13.67;;;39.90;53.60;;;;;;5114163;27;20487;-61
2021/06/29 08:08:39;;;;;;;14.13;13.00;;;41.50;50.60;;;;;;5110962;27;20501;-60
2021/06/29 08:11:12;;;;;;;14.60;13.70;;;41.20;48.90;;;;;;5116116;27;20440;-61
2021/06/29 08:13:41;;;;;;;15.00;14.00;;;40.50;48.30;;;;;;5121262;27;20468;-62
2021/06/29 08:16:09;;;;;;;14.93;14.10;;;38.50;50.70;;;;;;5124826;27;20437;-62
2021/06/29 08:18:38;;;;;;;14.77;13.60;;;37.70;51.60;;;;;;5121210;27;20636;-62
2021/06/29 08:21:06;;;;;;;16.90;12.40;;;38.00;52.10;;;;;;5115075;28;20438;-61
2021/06/29 08:23:33;;;;;;;15.13;14.13;;;38.50;50.40;;;;;;5115330;28;20461;-62
2021/06/29 08:26:02;;;;;;;13.57;12.77;;;38.70;49.50;;;;;;5114512;28;20472;-61
2021/06/29 08:28:33;;;;;;;12.60;11.90;;;38.30;49.90;;;;;;5118814;28;20846;-60
2021/06/29 08:31:02;;;;;;;13.90;13.20;;;39.40;48.20;;;;;;5121444;27;20445;-61
2021/06/29 08:33:32;;;;;;;14.20;13.50;;;38.20;48.90;;;;;;5118351;28;20497;-60
2021/06/29 08:36:01;;;;;;;13.10;12.23;;;36.90;50.00;;;;;;5123167;27;20442;-61
2021/06/29 08:38:28;;;;;;;12.90;12.10;;;35.20;52.60;;;;;;5127999;27;20450;-61
2021/06/29 08:40:55;;;;;;;13.00;12.17;;;33.70;54.80;;;;;;5118056;27;20438;-61
2021/06/29 08:43:22;;;;;;;11.20;10.40;;;32.70;55.50;;;;;;5120504;27;20433;-61
2021/06/29 08:45:51;;;;;;;12.57;11.77;;;32.20;56.40;;;;;;5099862;28;20448;-61
2021/06/29 08:48:19;;;;;;;13.00;12.00;;;32.00;57.40;;;;;;5122547;27;20480;-61
2021/06/29 08:50:46;;;;;;;11.33;10.73;;;32.00;57.40;;;;;;5119028;27;20464;-61
2021/06/29 08:53:14;;;;;;;12.80;12.00;;;32.00;57.80;;;;;;5116916;28;20440;-62
2021/06/29 08:55:45;;;;;;;12.50;11.70;;;32.00;58.10;;;;;;5117781;28;20452;-62
2021/06/29 08:58:20;;;;;;;10.90;10.30;;;31.90;58.60;;;;;;5112300;28;20467;-61
2021/06/29 09:00:48;;;;;;;11.47;10.77;;;31.90;55.90;;;;;;5118588;28;20444;-63
2021/06/29 09:03:15;;;;;;;11.47;10.77;;;31.20;58.40;;;;;;5113153;28;20439;-62
2021/06/29 09:05:52;;;;;;;11.77;11.07;;;31.10;59.00;;;;;;5124017;27;20444;-61
2021/06/29 09:08:23;;;;;;;11.20;10.60;;;30.60;59.40;;;;;;5115962;28;20489;-63
2021/06/29 09:11:02;;;;;;;10.90;10.20;;;31.00;59.30;;;;;;5117910;28;20772;-61
2021/06/29 09:13:30;;;;;;;10.87;10.30;;;30.90;59.80;;;;;;5118942;27;20654;-61
2021/06/29 09:15:58;;;;;;;12.43;11.63;;;30.70;59.40;;;;;;5117475;28;20444;-61
2021/06/29 09:18:31;;;;;;;12.00;11.30;;;31.10;58.80;;;;;;5116481;28;20447;-60
2021/06/29 09:21:05;;;;;;;12.50;11.70;;;33.10;55.70;;;;;;5118901;27;20540;-62
2021/06/29 09:23:40;;;;;;;12.50;11.60;;;33.10;56.20;;;;;;5122357;27;20489;-61
2021/06/29 09:26:12;;;;;;;11.60;10.90;;;33.10;54.90;;;;;;5125729;27;20437;-62
2021/06/29 09:28:48;;;;;;;11.33;10.73;;;32.60;56.20;;;;;;5117327;28;20483;-62
2021/06/29 09:31:20;;;;;;;10.47;9.77;;;32.20;56.60;;;;;;5120200;27;20488;-62
2021/06/29 09:34:05;;;;;;;11.03;10.23;;;31.90;56.60;;;;;;5131372;27;20440;-61
2021/06/29 09:36:35;;;;;;;10.10;9.60;;;31.80;57.90;;;;;;5134228;27;20450;-63
2021/06/29 09:39:13;;;;;;;8.97;8.47;;;31.50;57.20;;;;;;5109777;27;20491;-63
2021/06/29 09:41:42;;;;;;;10.27;9.47;;;31.30;56.40;;;;;;5116007;27;20450;-62
2021/06/29 09:44:11;;;;;;;11.00;10.20;;;30.70;57.00;;;;;;5125461;27;20493;-62
2021/06/29 09:46:41;;;;;;;9.23;8.80;;;30.40;57.80;;;;;;5119418;27;20776;-59
2021/06/29 09:49:13;;;;;;;9.20;8.70;;;30.40;56.30;;;;;;5116347;28;20557;-62
2021/06/29 09:51:52;;;;;;;8.97;8.50;;;30.00;57.60;;;;;;5117223;28;20441;-62
2021/06/29 09:54:23;;;;;;;9.67;9.07;;;29.80;57.10;;;;;;5127000;27;20451;-61
2021/06/29 09:56:51;;;;;;;9.87;9.37;;;29.80;57.70;;;;;;5126347;28;20442;-62
2021/06/29 09:59:24;;;;;;;10.13;9.60;;;30.00;56.60;;;;;;5110353;28;20663;-62
2021/06/29 10:02:05;;;;;;;8.90;8.40;;;29.70;57.70;;;;;;5123390;28;20429;-63
2021/06/29 10:04:33;;;;;;;10.27;9.43;;;29.70;58.00;;;;;;5117767;28;20439;-63
2021/06/29 10:07:18;;;;;;;9.00;8.60;;;29.30;58.10;;;;;;5115193;28;20624;-61
2021/06/29 10:10:18;;;;;;;9.00;8.57;;;29.40;59.50;;;;;;5117793;28;20531;-61
2021/06/29 10:12:45;;;;;;;9.63;9.03;;;29.60;58.80;;;;;;5116473;28;20465;-62
2021/06/29 10:15:13;;;;;;;10.30;9.67;;;;;;;;;;5126816;27;20502;-61
2021/06/29 10:17:42;;;;;;;9.97;9.43;;;;;;;;;;5125376;28;20448;-61
2021/06/29 10:20:37;;;;;;;9.90;9.30;;;30.10;58.70;;;;;;5127393;28;20462;-61
2021/06/29 10:23:05;;;;;;;9.80;9.20;;;;;;;;;;5122523;28;20495;-63
2021/06/29 10:25:34;;;;;;;10.33;9.63;;;29.80;59.40;;;;;;5123670;28;20481;-62
2021/06/29 10:28:02;;;;;;;10.13;9.43;;;29.80;59.50;;;;;;5118025;28;20445;-63
2021/06/29 10:30:30;;;;;;;10.33;9.43;;;;;;;;;;5104797;28;20491;-62
2021/06/29 10:32:58;;;;;;;10.97;10.27;;;;;;;;;;5121137;28;20771;-62
2021/06/29 10:35:26;;;;;;;8.97;8.47;;;;;;;;;;5118762;28;20445;-61
2021/06/29 10:37:54;;;;;;;9.83;9.23;;;30.20;57.00;;;;;;5124857;28;20448;-61
2021/06/29 10:40:24;;;;;;;10.97;10.00;;;;;;;;;;5121035;28;20445;-60
2021/06/29 10:42:57;;;;;;;9.90;9.10;;;30.10;57.80;;;;;;5118047;28;20763;-61
2021/06/29 10:45:35;;;;;;;12.83;9.70;;;30.00;58.70;;;;;;5128662;27;20464;-63
2021/06/29 10:48:26;;;;;;;10.03;9.53;;;30.00;59.20;;;;;;5118913;27;20472;-61
2021/06/29 10:50:57;;;;;;;10.50;9.97;;;30.00;59.00;;;;;;5120666;27;20453;-60
2021/06/29 10:53:40;;;;;;;10.83;10.20;;;30.10;60.30;;;;;;5115769;28;20563;-61
2021/06/29 10:56:27;;;;;;;10.60;9.97;;;30.10;59.70;;;;;;5117068;27;20514;-63
2021/06/29 10:58:56;;;;;;;11.93;11.03;;;30.30;60.20;;;;;;5108977;27;20466;-61
2021/06/29 11:01:35;;;;;;;11.60;10.90;;;30.50;60.40;;;;;;5120634;28;20458;-62
2021/06/29 11:04:05;;;;;;;11.00;10.37;;;30.50;59.80;;;;;;5120661;28;20516;-63
2021/06/29 11:06:46;;;;;;;10.80;10.10;;;30.40;60.30;;;;;;5125194;27;20481;-62
2021/06/29 11:09:21;;;;;;;9.97;9.17;;;30.80;59.30;;;;;;5125636;27;20486;-62
2021/06/29 11:12:19;;;;;;;10.80;10.10;;;30.80;59.20;;;;;;5127684;27;20764;-62
2021/06/29 11:14:49;;;;;;;9.30;8.67;;;31.00;57.80;;;;;;5116519;28;20448;-61
2021/06/29 11:17:22;;;;;;;8.77;8.27;;;31.40;57.00;;;;;;5119654;28;20441;-62
2021/06/29 11:20:12;;;;;;;9.70;8.90;;;31.40;57.10;;;;;;5120628;28;20585;-62
2021/06/29 11:22:58;;;;;;;9.70;9.20;;;31.60;55.60;;;;;;5107183;28;21001;-62
2021/06/29 11:25:35;;;;;;;8.93;8.23;;;31.70;54.70;;;;;;5119815;28;20436;-61
2021/06/29 11:28:26;;;;;;;9.20;8.70;;;31.60;54.80;;;;;;5120126;28;20436;-62
2021/06/29 11:31:22;;;;;;;8.67;8.17;;;31.20;56.20;;;;;;5118109;28;20438;-62
2021/06/29 11:33:56;;;;;;;8.43;7.97;;;31.00;56.20;;;;;;5125198;27;20496;-62
2021/06/29 11:36:24;;;;;;;9.00;8.50;;;31.00;55.80;;;;;;5118121;28;20452;-63
2021/06/29 11:38:56;;;;;;;9.60;8.97;;;31.50;55.30;;;;;;5123021;27;20444;-61
2021/06/29 11:41:32;;;;;;;8.33;7.93;;;31.90;55.30;;;;;;5124146;27;20482;-63
2021/06/29 11:44:06;;;;;;;9.03;8.40;;;32.00;52.00;;;;;;5110268;27;20768;-61
2021/06/29 11:46:55;;;;;;;8.63;8.13;;;31.90;53.70;;;;;;5135190;27;20619;-60
2021/06/29 11:49:30;;;;;;;8.47;8.03;;;31.90;52.50;;;;;;5122429;27;20485;-61
2021/06/29 11:52:01;;;;;;;8.53;8.10;;;32.50;54.00;;;;;;5126967;27;20440;-62
2021/06/29 11:54:37;;;;;;;9.03;8.63;;;32.80;51.30;;;;;;5124007;27;20444;-61
2021/06/29 11:57:19;;;;;;;9.60;9.00;;;33.00;50.10;;;;;;5109325;27;21495;-63
2021/06/29 11:59:55;;;;;;;8.53;8.13;;;32.70;51.60;;;;;;5122419;27;20481;-62
2021/06/29 12:02:27;;;;;;;9.40;8.87;;;32.90;50.40;;;;;;5131391;27;20438;-62
2021/06/29 12:05:07;;;;;;;8.37;7.97;;;32.90;51.40;;;;;;5101648;27;20445;-62
2021/06/29 12:07:42;;;;;;;9.27;8.47;;;33.10;50.30;;;;;;5117560;27;20469;-63
2021/06/29 12:10:17;;;;;;;8.00;7.60;;;32.70;52.10;;;;;;5111147;28;20522;-62
2021/06/29 12:12:53;;;;;;;8.83;8.43;;;32.40;53.00;;;;;;5118171;28;20759;-62
2021/06/29 12:15:27;;;;;;;8.60;8.10;;;32.30;51.20;;;;;;5111581;27;20474;-62
2021/06/29 12:18:05;;;;;;;8.70;8.20;;;32.10;51.50;;;;;;5115643;27;20724;-61
2021/06/29 12:20:47;;;;;;;9.07;8.50;;;32.10;52.50;;;;;;5130598;27;20445;-62
2021/06/29 12:23:17;;;;;;;10.77;10.07;;;32.20;52.60;;;;;;5118094;27;20436;-60
2021/06/29 12:25:47;;;;;;;9.20;8.70;;;32.00;53.40;;;;;;5119191;27;20507;-62
2021/06/29 12:28:16;;;;;;;9.50;9.00;;;;;;;;;;5129490;27;20444;-61
2021/06/29 12:30:58;;;;;;;10.00;9.40;;;32.20;52.90;;;;;;5119836;27;20575;-61
2021/06/29 12:33:38;;;;;;;9.63;9.13;;;32.20;53.60;;;;;;5109035;28;20457;-61
2021/06/29 12:36:18;;;;;;;9.67;9.07;;;32.00;54.20;;;;;;5118236;27;20458;-61
2021/06/29 12:38:53;;;;;;;9.60;9.07;;;;;;;;;;5118193;28;20449;-61
2021/06/29 12:41:28;;;;;;;10.20;9.70;;;32.50;53.80;;;;;;5121215;27;20451;-62
2021/06/29 12:44:01;;;;;;;11.27;10.63;;;32.50;55.90;;;;;;5134832;27;20512;-63
2021/06/29 12:46:41;;;;;;;12.30;11.60;;;32.40;57.70;;;;;;5117309;28;20852;-61
2021/06/29 12:49:16;;;;;;;12.50;11.80;;;32.70;59.30;;;;;;5128278;27;20490;-61
2021/06/29 12:51:49;;;;;;;11.80;11.10;;;32.90;60.00;;;;;;5122328;27;20521;-62
2021/06/29 12:54:18;;;;;;;11.60;10.87;;;32.70;60.10;;;;;;5114164;28;20505;-62
2021/06/29 12:56:57;;;;;;;12.10;11.40;;;32.50;60.00;;;;;;5125204;27;20618;-61
2021/06/29 12:59:32;;;;;;;12.13;11.33;;;32.30;61.60;;;;;;5125503;27;20512;-62
2021/06/29 13:02:11;;;;;;;11.37;10.67;;;32.40;61.50;;;;;;5116803;27;20817;-63
2021/06/29 13:07:13;;;;;;;11.60;10.90;;;32.00;61.20;;;;;;5106867;27;20621;-62
2021/06/29 13:09:42;;;;;;;11.70;11.00;;;31.50;60.20;;;;;;5111251;27;20739;-62
2021/06/29 13:12:20;;;;;;;11.13;10.43;;;31.60;60.40;;;;;;5111565;27;20630;-63
2021/06/29 13:14:59;;;;;;;12.30;11.27;;;31.80;59.50;;;;;;5116900;28;20502;-62
2021/06/29 13:17:26;;;;;;;11.73;11.03;;;31.90;58.90;;;;;;5115656;27;20444;-61
2021/06/29 13:20:07;;;;;;;12.13;11.33;;;31.80;60.10;;;;;;5117311;28;20447;-61
2021/06/29 13:22:42;;;;;;;10.47;9.87;;;31.80;59.90;;;;;;5086129;28;20458;-62
2021/06/29 13:25:31;;;;;;;10.70;9.87;;;31.70;61.60;;;;;;5117517;28;20493;-62
2021/06/29 13:28:19;;;;;;;11.50;10.80;;;31.80;58.50;;;;;;5117308;28;20428;-62
2021/06/29 13:30:48;;;;;;;9.47;8.87;;;31.60;58.70;;;;;;5129612;27;20745;-62
2021/06/29 13:33:16;;;;;;;9.27;8.77;;;31.50;58.40;;;;;;5128071;27;20470;-61
2021/06/29 13:35:43;;;;;;;10.00;9.50;;;31.20;58.40;;;;;;5126704;27;20553;-62
2021/06/29 13:38:18;;;;;;;9.63;9.13;;;31.30;59.30;;;;;;5103879;28;20791;-62
2021/06/29 13:40:50;;;;;;;9.43;8.83;;;31.30;58.50;;;;;;5115749;27;20476;-60
2021/06/29 13:43:20;;;;;;;10.00;9.40;;;31.40;58.00;;;;;;5103992;28;20445;-61
2021/06/29 13:45:51;;;;;;;9.90;9.30;;;31.50;58.80;;;;;;5117902;27;20504;-62
2021/06/29 13:48:33;;;;;;;9.70;8.80;;;31.40;58.10;;;;;;5113338;28;20469;-61
2021/06/29 13:51:04;;;;;;;9.57;9.10;;;31.30;57.70;;;;;;5125309;27;20707;-62
2021/06/29 13:53:33;;;;;;;9.80;9.27;;;31.30;58.60;;;;;;5118121;27;20510;-62
2021/06/29 13:56:07;;;;;;;11.00;10.40;;;31.20;57.20;;;;;;5110759;28;20638;-62
2021/06/29 13:58:36;;;;;;;10.17;9.57;;;31.30;57.90;;;;;;5119935;28;20469;-62
2021/06/29 14:01:05;;;;;;;10.10;9.50;;;;;;;;;;5125573;28;20447;-63
2021/06/29 14:03:34;;;;;;;10.20;9.53;;;;;;;;;;5099104;28;20439;-61
2021/06/29 14:06:09;;;;;;;8.67;8.27;;;31.10;57.20;;;;;;5116941;28;20632;-61
2021/06/29 14:08:40;;;;;;;10.10;9.40;;;31.00;56.60;;;;;;5122621;28;20467;-61
2021/06/29 14:11:20;;;;;;;10.10;9.30;;;30.90;57.10;;;;;;5104023;28;20723;-62
2021/06/29 14:13:55;;;;;;;10.20;9.60;;;30.80;57.40;;;;;;5109159;28;20444;-61
2021/06/29 14:16:25;;;;;;;9.20;8.60;;;30.80;57.10;;;;;;5106314;28;20438;-61
2021/06/29 14:18:54;;;;;;;9.50;9.00;;;30.90;58.00;;;;;;5122566;27;20776;-62
2021/06/29 14:21:24;;;;;;;10.40;9.63;;;31.10;58.20;;;;;;5119749;28;20810;-62
2021/06/29 14:23:55;;;;;;;11.10;10.40;;;31.20;57.70;;;;;;5135124;27;20443;-62
2021/06/29 14:26:23;;;;;;;9.63;9.03;;;31.30;57.40;;;;;;5129921;27;20440;-61
2021/06/29 14:28:56;;;;;;;9.13;8.63;;;31.00;56.70;;;;;;5096122;28;20439;-63
2021/06/29 14:31:23;;;;;;;9.33;8.73;;;30.80;57.30;;;;;;5123168;27;20494;-62
2021/06/29 14:33:51;;;;;;;9.23;8.60;;;30.80;57.80;;;;;;5118719;28;20481;-61
2021/06/29 14:36:18;;;;;;;9.50;8.90;;;31.00;57.30;;;;;;5120395;28;20655;-61
2021/06/29 14:38:48;;;;;;;8.37;7.90;;;31.40;56.90;;;;;;5116326;28;20437;-62
2021/06/29 14:41:17;;;;;;;8.23;7.83;;;31.90;56.10;;;;;;5096671;28;20455;-62
2021/06/29 14:43:45;;;;;;;9.23;8.63;;;32.30;55.90;;;;;;5117990;27;20433;-63
2021/06/29 14:46:13;;;;;;;9.23;8.73;;;32.40;55.30;;;;;;5120560;27;20438;-63
2021/06/29 14:48:41;;;;;;;8.97;8.53;;;32.10;54.40;;;;;;5114081;27;20479;-62
2021/06/29 14:51:08;;;;;;;8.80;8.40;;;32.00;55.30;;;;;;5118502;27;20513;-61
2021/06/29 14:53:44;;;;;;;8.37;7.87;;;31.80;54.80;;;;;;5129258;27;20436;-61
2021/06/29 14:56:11;;;;;;;17.90;16.50;;;31.50;54.70;;;;;;5121709;27;20660;-60
2021/06/29 14:58:38;;;;;;;9.37;8.87;;;31.50;56.40;;;;;;5112960;27;20600;-62
2021/06/29 15:01:05;;;;;;;8.90;8.20;;;31.60;55.10;;;;;;5101428;27;20628;-61
2021/06/29 15:03:32;;;;;;;7.80;7.40;;;31.80;55.30;;;;;;5131501;27;20511;-62
2021/06/29 15:06:00;;;;;;;9.00;8.50;;;31.80;55.40;;;;;;5126808;27;20543;-60
2021/06/29 15:08:27;;;;;;;8.60;8.10;;;32.00;55.80;;;;;;5124006;27;20551;-62
2021/06/29 15:10:55;;;;;;;9.30;8.70;;;32.00;54.50;;;;;;5122729;27;20870;-61
2021/06/29 15:13:23;;;;;;;8.80;8.30;;;31.50;56.20;;;;;;5124460;27;20448;-61
2021/06/29 15:15:50;;;;;;;8.43;8.00;;;31.20;56.00;;;;;;5120420;28;20456;-62
2021/06/29 15:18:18;;;;;;;8.57;8.07;;;31.10;56.50;;;;;;5121761;27;20665;-61
2021/06/29 15:20:45;;;;;;;7.73;7.33;;;;;;;;;;5101265;28;20444;-62
2021/06/29 15:23:13;;;;;;;8.63;8.13;;;31.00;55.40;;;;;;5119835;28;20788;-61
2021/06/29 15:25:41;;;;;;;7.80;7.37;;;31.00;55.90;;;;;;5119885;28;20702;-62
2021/06/29 15:28:08;;;;;;;8.80;8.20;;;31.20;56.50;;;;;;5120652;28;20501;-62
2021/06/29 15:30:35;;;;;;;8.30;7.90;;;31.30;55.80;;;;;;5118618;27;20791;-61
2021/06/29 15:33:03;;;;;;;8.60;8.10;;;31.20;55.40;;;;;;5119743;27;20532;-62
2021/06/29 15:35:31;;;;;;;9.50;9.00;;;31.10;55.80;;;;;;5125979;27;20642;-61
2021/06/29 15:38:01;;;;;;;9.10;8.50;;;31.20;57.00;;;;;;5129083;27;21056;-62
2021/06/29 15:40:29;;;;;;;9.27;8.77;;;31.30;58.40;;;;;;5119761;28;20439;-61
2021/06/29 15:42:57;;;;;;;9.77;9.17;;;31.10;59.00;;;;;;5118617;28;20440;-63
2021/06/29 15:45:26;;;;;;;9.60;9.00;;;;;;;;;;5131978;27;20442;-61
2021/06/29 15:47:54;;;;;;;9.33;8.83;;;30.90;59.40;;;;;;5136644;27;20428;-61
2021/06/29 15:50:22;;;;;;;9.47;8.77;;;;;;;;;;5138457;27;20482;-62
2021/06/29 15:52:50;;;;;;;10.60;9.80;;;30.60;59.20;;;;;;5128104;27;20448;-62
2021/06/29 15:55:19;;;;;;;10.63;9.80;;;30.70;60.20;;;;;;5133392;27;20488;-62
2021/06/29 15:57:46;;;;;;;10.53;9.93;;;30.70;60.00;;;;;;5130488;27;20438;-62
2021/06/29 16:00:15;;;;;;;9.90;9.20;;;31.40;62.60;;;;;;5128819;27;20836;-61
2021/06/29 16:02:42;;;;;;;10.13;8.63;;;30.70;62.90;;;;;;5132344;27;20437;-63
2021/06/29 16:05:12;;;;;;;10.43;9.87;;;30.60;63.60;;;;;;5130453;27;20520;-61
2021/06/29 16:07:40;;;;;;;9.07;8.53;;;30.50;63.00;;;;;;5133366;27;20496;-62
2021/06/29 16:10:13;;;;;;;10.17;9.50;;;30.30;63.10;;;;;;5125189;27;20668;-62
2021/06/29 16:12:44;;;;;;;10.00;9.30;;;30.20;62.90;;;;;;5128643;27;20438;-61
2021/06/29 16:15:13;;;;;;;9.70;9.10;;;30.20;63.60;;;;;;5120688;27;20442;-61
2021/06/29 16:17:46;;;;;;;9.63;9.03;;;30.20;61.90;;;;;;5126891;27;20673;-62
2021/06/29 16:20:17;;;;;;;9.67;9.07;;;30.30;61.50;;;;;;5126347;27;20493;-62
2021/06/29 16:22:44;;;;;;;9.57;9.07;;;30.30;60.50;;;;;;5130839;27;20447;-60
2021/06/29 16:25:12;;;;;;;9.70;9.00;;;30.20;61.70;;;;;;5118390;27;20466;-61
2021/06/29 16:27:41;;;;;;;9.50;8.90;;;30.20;61.90;;;;;;5118328;28;20442;-62
2021/06/29 16:30:11;;;;;;;9.60;9.00;;;30.00;61.20;;;;;;5119889;27;20477;-62
2021/06/29 16:32:38;;;;;;;9.90;9.10;;;29.90;63.20;;;;;;5126148;27;20438;-62
2021/06/29 16:35:07;;;;;;;9.70;9.03;;;29.80;62.50;;;;;;5120532;27;20437;-62
2021/06/29 16:37:34;;;;;;;8.93;8.33;;;29.80;63.50;;;;;;5119746;27;20443;-62
2021/06/29 16:40:02;;;;;;;8.43;7.83;;;29.50;60.80;;;;;;5110148;27;20610;-62
2021/06/29 16:42:31;;;;;;;8.93;8.43;;;30.00;60.70;;;;;;5105690;28;20444;-62
2021/06/29 16:44:58;;;;;;;8.77;8.20;;;30.00;61.40;;;;;;5113047;28;20457;-62
2021/06/29 16:47:25;;;;;;;10.43;9.73;;;29.90;62.10;;;;;;5109092;27;20452;-61
2021/06/29 16:49:53;;;;;;;9.47;8.70;;;30.00;61.80;;;;;;5111707;28;20446;-61
2021/06/29 16:52:20;;;;;;;9.73;9.07;;;30.00;62.50;;;;;;5119064;27;20492;-61
2021/06/29 16:54:47;;;;;;;9.20;8.70;;;29.80;62.00;;;;;;5114301;28;20632;-61
2021/06/29 16:57:14;;;;;;;9.57;9.07;;;;;;;;;;5109829;28;20439;-60
2021/06/29 16:59:42;;;;;;;8.33;7.93;;;30.00;62.00;;;;;;5130011;27;20517;-61
2021/06/29 17:02:09;;;;;;;8.90;8.40;;;;;;;;;;5111924;27;20449;-63
2021/06/29 17:04:36;;;;;;;9.93;9.33;;;29.80;63.00;;;;;;5096715;28;20452;-60
2021/06/29 17:07:06;;;;;;;7.63;7.23;;;30.40;64.30;;;;;;5115791;28;20713;-61
2021/06/29 17:09:39;;;;;;;9.73;9.10;;;29.70;64.60;;;;;;5116109;28;20933;-61
2021/06/29 17:12:07;;;;;;;8.97;8.07;;;29.40;64.60;;;;;;5117777;27;20479;-61
2021/06/29 17:14:34;;;;;;;10.20;9.40;;;29.30;65.50;;;;;;5116250;28;20760;-61
2021/06/29 17:17:02;;;;;;;9.00;8.50;;;29.30;66.10;;;;;;5110786;27;20447;-61
2021/06/29 17:19:29;;;;;;;9.50;9.00;;;29.20;65.80;;;;;;5116533;27;20449;-61
2021/06/29 17:21:57;;;;;;;8.50;8.00;;;29.30;66.10;;;;;;5116364;28;20495;-61
2021/06/29 17:24:24;;;;;;;8.43;8.00;;;29.20;65.20;;;;;;5113964;28;20483;-61
2021/06/29 17:26:52;;;;;;;9.50;8.90;;;29.20;65.80;;;;;;5117361;28;20492;-61
2021/06/29 17:29:19;;;;;;;9.27;8.77;;;29.20;66.90;;;;;;5114638;28;20847;-60
2021/06/29 17:31:46;;;;;;;8.57;8.17;;;29.30;66.60;;;;;;5114677;28;20478;-61
2021/06/29 17:34:14;;;;;;;8.57;7.97;;;29.30;65.70;;;;;;5115290;27;20484;-62
2021/06/29 17:36:41;;;;;;;8.57;8.07;;;29.20;65.80;;;;;;5116443;27;20442;-61
2021/06/29 17:39:08;;;;;;;8.67;8.17;;;29.20;65.50;;;;;;5121648;27;20439;-61
2021/06/29 17:41:35;;;;;;;9.00;8.50;;;;;;;;;;5113444;28;20558;-62
2021/06/29 17:44:03;;;;;;;8.07;7.57;;;;;;;;;;5118986;27;20446;-61
2021/06/29 17:46:31;;;;;;;8.37;7.87;;;25.80;62.70;;;;;;5115878;28;20438;-62
2021/06/29 17:48:59;;;;;;;8.93;8.20;;;;;;;;;;5121621;27;20677;-62
2021/06/29 17:51:27;;;;;;;9.57;8.90;;;;;;;;;;5113647;27;20889;-63
2021/06/29 17:53:54;;;;;;;8.80;8.30;;;;;;;;;;5115859;28;20445;-62
2021/06/29 17:56:22;;;;;;;8.37;7.87;;;;;;;;;;5113421;27;20563;-62
2021/06/29 17:58:50;;;;;;;8.60;8.03;;;;;;;;;;5097906;28;20828;-61
2021/06/29 18:01:18;;;;;;;9.20;8.50;;;;;;;;;;5115897;28;20517;-61
2021/06/29 18:03:46;;;;;;;8.50;8.00;;;;;;;;;;5094372;28;20704;-62
2021/06/29 18:06:13;;;;;;;8.47;7.97;;;;;;;;;;5111894;28;20446;-61
2021/06/29 18:08:41;;;;;;;8.90;8.30;;;;;;;;;;5111069;28;20514;-61
2021/06/29 18:11:08;;;;;;;8.80;8.30;;;;;;;;;;5107124;28;20517;-61
2021/06/29 18:13:36;;;;;;;8.53;8.10;;;;;;;;;;5109358;28;20769;-61
2021/06/29 18:16:06;;;;;;;9.70;8.90;;;;;;;;;;5114254;28;20507;-61
2021/06/29 18:18:33;;;;;;;8.00;7.50;;;;;;;;;;5114176;28;20434;-61
2021/06/29 18:21:01;;;;;;;7.90;7.50;;;;;;;;;;5114253;28;20782;-61
2021/06/29 18:23:29;;;;;;;9.37;8.67;;;;;;;;;;5114463;28;20839;-61
2021/06/29 18:25:57;;;;;;;7.97;7.57;;;;;;;;;;5108464;28;20483;-61
2021/06/29 18:28:24;;;;;;;9.27;8.67;;;;;;;;;;5107197;28;20450;-61
2021/06/29 18:30:52;;;;;;;9.47;8.90;;;;;;;;;;5116100;28;20505;-63
2021/06/29 18:33:19;;;;;;;9.10;8.60;;;;;;;;;;5116268;28;20447;-62
2021/06/29 18:35:46;;;;;;;8.80;8.20;;;27.60;68.70;;;;;;5114559;28;20443;-61
2021/06/29 18:38:14;;;;;;;9.53;8.70;;;27.60;70.00;;;;;;5122729;28;20796;-61
2021/06/29 18:40:41;;;;;;;8.53;8.03;;;27.30;70.00;;;;;;5107950;28;20498;-61
2021/06/29 18:43:10;;;;;;;8.70;8.20;;;27.20;70.90;;;;;;5115928;28;20445;-61
2021/06/29 18:45:37;;;;;;;8.90;8.40;;;;;;;;;;5118437;28;20801;-62
2021/06/29 18:48:05;;;;;;;9.37;8.87;;;;;;;;;;5118997;27;20447;-62
2021/06/29 18:50:32;;;;;;;8.80;8.20;;;;;;;;;;5129342;28;20481;-61
2021/06/29 18:53:03;;;;;;;9.63;8.83;;;;;;;;;;5124132;27;20479;-62
2021/06/29 18:55:32;;;;;;;8.93;8.27;;;26.80;70.90;;;;;;5123626;27;20442;-61
2021/06/29 18:58:04;;;;;;;9.30;8.70;;;26.80;71.20;;;;;;5134127;28;20433;-62
2021/06/29 19:00:32;;;;;;;8.80;8.30;;;26.70;71.80;;;;;;5128102;28;20489;-62
2021/06/29 19:02:59;;;;;;;8.93;8.43;;;;;;;;;;5119509;28;20439;-62
2021/06/29 19:05:27;;;;;;;9.30;8.80;;;;;;;;;;5122270;27;20447;-62
2021/06/29 19:07:57;;;;;;;9.07;8.47;;;;;;;;;;5128042;27;20469;-61
2021/06/29 19:10:28;;;;;;;9.23;8.63;;;;;;;;;;5134152;27;20812;-62
2021/06/29 19:12:55;;;;;;;10.47;9.47;;;;;;;;;;5110885;28;20442;-60
2021/06/29 19:15:23;;;;;;;9.23;8.57;;;26.50;73.80;;;;;;5120637;27;20748;-61
2021/06/29 19:17:51;;;;;;;9.10;8.60;;;26.40;74.10;;;;;;5119681;27;20491;-61
2021/06/29 19:20:20;;;;;;;8.77;8.27;;;26.40;74.70;;;;;;5118844;28;20447;-61
2021/06/29 19:22:47;;;;;;;9.03;8.47;;;26.40;75.10;;;;;;5120467;28;20468;-61